sensor_id;sensor_type;location;lat;lon;timestamp;P1;durP1;ratioP1;P2;durP2;ratioP2
76155;SDS011;64906;51.290;7.348;2023-06-14T00:00:24;9.30;;;5.77;;
76155;SDS011;64906;51.290;7.348;2023-06-14T00:02:49;7.70;;;5.35;;
76155;SDS011;64906;51.290;7.348;2023-06-14T00:05:15;7.17;;;5.00;;
76155;SDS011;64906;51.290;7.348;2023-06-14T00:07:41;8.20;;;5.47;;
76155;SDS011;64906;51.290;7.348;2023-06-14T00:10:13;8.38;;;5.13;;
76155;SDS011;64906;51.290;7.348;2023-06-14T00:12:39;7.97;;;5.30;;
76155;SDS011;64906;51.290;7.348;2023-06-14T00:15:04;7.20;;;4.90;;
76155;SDS011;64906;51.290;7.348;2023-06-14T00:17:31;8.05;;;5.20;;
76155;SDS011;64906;51.290;7.348;2023-06-14T00:19:56;10.57;;;5.63;;
76155;SDS011;64906;51.290;7.348;2023-06-14T00:22:22;7.03;;;5.10;;
76155;SDS011;64906;51.290;7.348;2023-06-14T00:24:53;7.57;;;5.07;;
76155;SDS011;64906;51.290;7.348;2023-06-14T00:27:19;7.60;;;5.38;;
76155;SDS011;64906;51.290;7.348;2023-06-14T00:29:44;8.73;;;5.47;;
76155;SDS011;64906;51.290;7.348;2023-06-14T00:32:09;7.35;;;5.10;;
76155;SDS011;64906;51.290;7.348;2023-06-14T00:34:35;7.53;;;5.20;;
76155;SDS011;64906;51.290;7.348;2023-06-14T00:37:00;8.52;;;5.45;;
76155;SDS011;64906;51.290;7.348;2023-06-14T00:39:26;7.15;;;4.90;;
76155;SDS011;64906;51.290;7.348;2023-06-14T00:41:51;7.67;;;5.20;;
76155;SDS011;64906;51.290;7.348;2023-06-14T00:44:16;8.53;;;5.43;;
76155;SDS011;64906;51.290;7.348;2023-06-14T00:46:42;8.38;;;5.25;;
76155;SDS011;64906;51.290;7.348;2023-06-14T00:49:08;7.65;;;4.60;;
76155;SDS011;64906;51.290;7.348;2023-06-14T00:51:35;7.25;;;4.60;;
76155;SDS011;64906;51.290;7.348;2023-06-14T00:54:02;8.20;;;5.35;;
76155;SDS011;64906;51.290;7.348;2023-06-14T00:56:27;8.80;;;5.38;;
76155;SDS011;64906;51.290;7.348;2023-06-14T00:58:53;8.05;;;5.03;;
76155;SDS011;64906;51.290;7.348;2023-06-14T01:01:19;7.45;;;4.75;;
76155;SDS011;64906;51.290;7.348;2023-06-14T01:03:45;7.40;;;5.30;;
76155;SDS011;64906;51.290;7.348;2023-06-14T01:06:15;8.53;;;5.00;;
76155;SDS011;64906;51.290;7.348;2023-06-14T01:08:54;7.82;;;4.95;;
76155;SDS011;64906;51.290;7.348;2023-06-14T01:11:32;7.43;;;4.93;;
76155;SDS011;64906;51.290;7.348;2023-06-14T01:14:05;7.72;;;4.85;;
76155;SDS011;64906;51.290;7.348;2023-06-14T01:16:32;8.40;;;5.50;;
76155;SDS011;64906;51.290;7.348;2023-06-14T01:19:01;7.43;;;4.88;;
76155;SDS011;64906;51.290;7.348;2023-06-14T01:21:27;8.65;;;4.53;;
76155;SDS011;64906;51.290;7.348;2023-06-14T01:23:53;7.82;;;4.90;;
76155;SDS011;64906;51.290;7.348;2023-06-14T01:26:20;7.22;;;4.78;;
76155;SDS011;64906;51.290;7.348;2023-06-14T01:28:46;7.57;;;4.63;;
76155;SDS011;64906;51.290;7.348;2023-06-14T01:31:14;7.00;;;4.53;;
76155;SDS011;64906;51.290;7.348;2023-06-14T01:33:42;6.93;;;4.53;;
76155;SDS011;64906;51.290;7.348;2023-06-14T01:36:09;6.78;;;4.65;;
76155;SDS011;64906;51.290;7.348;2023-06-14T01:38:34;7.32;;;4.72;;
76155;SDS011;64906;51.290;7.348;2023-06-14T01:41:02;7.00;;;4.55;;
76155;SDS011;64906;51.290;7.348;2023-06-14T01:43:29;7.13;;;4.65;;
76155;SDS011;64906;51.290;7.348;2023-06-14T01:45:55;7.10;;;4.53;;
76155;SDS011;64906;51.290;7.348;2023-06-14T01:48:22;6.43;;;4.22;;
76155;SDS011;64906;51.290;7.348;2023-06-14T01:50:48;7.20;;;4.85;;
76155;SDS011;64906;51.290;7.348;2023-06-14T01:53:14;7.50;;;4.85;;
76155;SDS011;64906;51.290;7.348;2023-06-14T01:55:40;6.90;;;4.45;;
76155;SDS011;64906;51.290;7.348;2023-06-14T01:58:09;6.95;;;4.40;;
76155;SDS011;64906;51.290;7.348;2023-06-14T02:00:35;6.20;;;4.32;;
76155;SDS011;64906;51.290;7.348;2023-06-14T02:03:00;9.77;;;4.53;;
76155;SDS011;64906;51.290;7.348;2023-06-14T02:05:26;7.28;;;4.30;;
76155;SDS011;64906;51.290;7.348;2023-06-14T02:07:51;6.75;;;4.53;;
76155;SDS011;64906;51.290;7.348;2023-06-14T02:10:18;8.57;;;4.35;;
76155;SDS011;64906;51.290;7.348;2023-06-14T02:12:43;7.57;;;5.18;;
76155;SDS011;64906;51.290;7.348;2023-06-14T02:15:09;6.97;;;4.57;;
76155;SDS011;64906;51.290;7.348;2023-06-14T02:17:41;7.13;;;4.50;;
76155;SDS011;64906;51.290;7.348;2023-06-14T02:20:07;6.80;;;4.50;;
76155;SDS011;64906;51.290;7.348;2023-06-14T02:25:55;6.65;;;4.53;;
76155;SDS011;64906;51.290;7.348;2023-06-14T02:28:21;7.07;;;4.60;;
76155;SDS011;64906;51.290;7.348;2023-06-14T02:30:46;6.53;;;4.30;;
76155;SDS011;64906;51.290;7.348;2023-06-14T02:33:11;6.27;;;4.27;;
76155;SDS011;64906;51.290;7.348;2023-06-14T02:35:38;7.72;;;4.45;;
76155;SDS011;64906;51.290;7.348;2023-06-14T02:38:03;6.77;;;4.30;;
76155;SDS011;64906;51.290;7.348;2023-06-14T02:40:28;8.27;;;4.63;;
76155;SDS011;64906;51.290;7.348;2023-06-14T02:42:53;6.37;;;3.90;;
76155;SDS011;64906;51.290;7.348;2023-06-14T02:45:19;5.88;;;3.78;;
76155;SDS011;64906;51.290;7.348;2023-06-14T02:47:45;6.18;;;4.32;;
76155;SDS011;64906;51.290;7.348;2023-06-14T02:50:11;6.37;;;4.20;;
76155;SDS011;64906;51.290;7.348;2023-06-14T02:52:36;5.73;;;3.93;;
76155;SDS011;64906;51.290;7.348;2023-06-14T02:55:01;7.18;;;4.32;;
76155;SDS011;64906;51.290;7.348;2023-06-14T02:57:27;6.25;;;4.22;;
76155;SDS011;64906;51.290;7.348;2023-06-14T02:59:52;6.90;;;4.70;;
76155;SDS011;64906;51.290;7.348;2023-06-14T03:02:17;5.83;;;3.93;;
76155;SDS011;64906;51.290;7.348;2023-06-14T03:04:43;6.40;;;3.93;;
76155;SDS011;64906;51.290;7.348;2023-06-14T03:07:09;6.57;;;4.10;;
76155;SDS011;64906;51.290;7.348;2023-06-14T03:09:38;5.90;;;3.92;;
76155;SDS011;64906;51.290;7.348;2023-06-14T03:12:04;6.45;;;4.30;;
76155;SDS011;64906;51.290;7.348;2023-06-14T03:14:34;7.07;;;4.65;;
76155;SDS011;64906;51.290;7.348;2023-06-14T03:17:00;8.20;;;4.40;;
76155;SDS011;64906;51.290;7.348;2023-06-14T03:19:25;6.32;;;4.25;;
76155;SDS011;64906;51.290;7.348;2023-06-14T03:21:51;6.80;;;4.20;;
76155;SDS011;64906;51.290;7.348;2023-06-14T03:24:17;6.85;;;3.83;;
76155;SDS011;64906;51.290;7.348;2023-06-14T03:26:42;5.53;;;3.63;;
76155;SDS011;64906;51.290;7.348;2023-06-14T03:29:08;5.90;;;3.88;;
76155;SDS011;64906;51.290;7.348;2023-06-14T03:31:34;6.77;;;4.00;;
76155;SDS011;64906;51.290;7.348;2023-06-14T03:33:59;6.38;;;3.88;;
76155;SDS011;64906;51.290;7.348;2023-06-14T03:36:25;6.68;;;4.45;;
76155;SDS011;64906;51.290;7.348;2023-06-14T03:38:50;5.77;;;3.60;;
76155;SDS011;64906;51.290;7.348;2023-06-14T03:41:16;6.30;;;3.87;;
76155;SDS011;64906;51.290;7.348;2023-06-14T03:43:41;8.23;;;4.07;;
76155;SDS011;64906;51.290;7.348;2023-06-14T03:46:06;5.20;;;3.73;;
76155;SDS011;64906;51.290;7.348;2023-06-14T03:48:32;7.57;;;4.23;;
76155;SDS011;64906;51.290;7.348;2023-06-14T03:50:58;6.38;;;3.88;;
76155;SDS011;64906;51.290;7.348;2023-06-14T03:53:23;5.87;;;3.73;;
76155;SDS011;64906;51.290;7.348;2023-06-14T03:55:49;6.53;;;4.00;;
76155;SDS011;64906;51.290;7.348;2023-06-14T03:58:15;6.68;;;4.15;;
76155;SDS011;64906;51.290;7.348;2023-06-14T04:00:40;6.35;;;4.20;;
76155;SDS011;64906;51.290;7.348;2023-06-14T04:03:06;5.93;;;3.60;;
76155;SDS011;64906;51.290;7.348;2023-06-14T04:05:31;5.90;;;3.83;;
76155;SDS011;64906;51.290;7.348;2023-06-14T04:07:57;7.20;;;4.18;;
76155;SDS011;64906;51.290;7.348;2023-06-14T04:10:23;6.30;;;4.00;;
76155;SDS011;64906;51.290;7.348;2023-06-14T04:12:49;6.28;;;3.83;;
76155;SDS011;64906;51.290;7.348;2023-06-14T04:15:15;6.00;;;4.00;;
76155;SDS011;64906;51.290;7.348;2023-06-14T04:17:40;6.83;;;3.80;;
76155;SDS011;64906;51.290;7.348;2023-06-14T04:20:06;5.97;;;3.67;;
76155;SDS011;64906;51.290;7.348;2023-06-14T04:22:33;6.40;;;4.00;;
76155;SDS011;64906;51.290;7.348;2023-06-14T04:24:59;5.90;;;3.83;;
76155;SDS011;64906;51.290;7.348;2023-06-14T04:27:25;6.17;;;3.83;;
76155;SDS011;64906;51.290;7.348;2023-06-14T04:29:52;6.20;;;3.90;;
76155;SDS011;64906;51.290;7.348;2023-06-14T04:32:25;5.95;;;3.72;;
76155;SDS011;64906;51.290;7.348;2023-06-14T04:34:54;6.13;;;3.83;;
76155;SDS011;64906;51.290;7.348;2023-06-14T04:37:20;7.38;;;3.65;;
76155;SDS011;64906;51.290;7.348;2023-06-14T04:39:48;6.88;;;4.13;;
76155;SDS011;64906;51.290;7.348;2023-06-14T04:42:13;5.65;;;3.72;;
76155;SDS011;64906;51.290;7.348;2023-06-14T04:44:45;5.05;;;3.30;;
76155;SDS011;64906;51.290;7.348;2023-06-14T04:47:12;5.43;;;3.60;;
76155;SDS011;64906;51.290;7.348;2023-06-14T04:49:39;5.93;;;3.70;;
76155;SDS011;64906;51.290;7.348;2023-06-14T04:52:06;5.63;;;3.53;;
76155;SDS011;64906;51.290;7.348;2023-06-14T04:54:32;5.57;;;3.38;;
76155;SDS011;64906;51.290;7.348;2023-06-14T04:56:58;5.13;;;3.33;;
76155;SDS011;64906;51.290;7.348;2023-06-14T04:59:24;5.70;;;3.70;;
76155;SDS011;64906;51.290;7.348;2023-06-14T05:01:50;6.33;;;3.70;;
76155;SDS011;64906;51.290;7.348;2023-06-14T05:04:16;6.25;;;3.72;;
76155;SDS011;64906;51.290;7.348;2023-06-14T05:06:43;5.97;;;3.35;;
76155;SDS011;64906;51.290;7.348;2023-06-14T05:09:13;5.85;;;3.90;;
76155;SDS011;64906;51.290;7.348;2023-06-14T05:11:40;5.65;;;3.75;;
76155;SDS011;64906;51.290;7.348;2023-06-14T05:14:07;5.93;;;3.72;;
76155;SDS011;64906;51.290;7.348;2023-06-14T05:16:32;6.20;;;4.00;;
76155;SDS011;64906;51.290;7.348;2023-06-14T05:18:57;5.27;;;3.50;;
76155;SDS011;64906;51.290;7.348;2023-06-14T05:21:23;5.07;;;3.25;;
76155;SDS011;64906;51.290;7.348;2023-06-14T05:23:49;5.32;;;3.30;;
76155;SDS011;64906;51.290;7.348;2023-06-14T05:26:15;5.40;;;3.40;;
76155;SDS011;64906;51.290;7.348;2023-06-14T05:28:41;5.60;;;3.58;;
76155;SDS011;64906;51.290;7.348;2023-06-14T05:31:06;5.90;;;3.47;;
76155;SDS011;64906;51.290;7.348;2023-06-14T05:33:31;8.20;;;3.57;;
76155;SDS011;64906;51.290;7.348;2023-06-14T05:35:57;6.00;;;3.40;;
76155;SDS011;64906;51.290;7.348;2023-06-14T05:38:22;5.57;;;3.27;;
76155;SDS011;64906;51.290;7.348;2023-06-14T05:40:47;6.37;;;4.07;;
76155;SDS011;64906;51.290;7.348;2023-06-14T05:43:12;6.10;;;3.57;;
76155;SDS011;64906;51.290;7.348;2023-06-14T05:45:38;5.55;;;3.35;;
76155;SDS011;64906;51.290;7.348;2023-06-14T05:48:03;5.40;;;3.37;;
76155;SDS011;64906;51.290;7.348;2023-06-14T05:50:29;4.97;;;3.15;;
76155;SDS011;64906;51.290;7.348;2023-06-14T05:52:54;5.28;;;3.20;;
76155;SDS011;64906;51.290;7.348;2023-06-14T05:55:20;5.70;;;3.40;;
76155;SDS011;64906;51.290;7.348;2023-06-14T05:57:45;5.50;;;3.30;;
76155;SDS011;64906;51.290;7.348;2023-06-14T06:00:11;5.32;;;3.38;;
76155;SDS011;64906;51.290;7.348;2023-06-14T06:02:39;5.75;;;3.47;;
76155;SDS011;64906;51.290;7.348;2023-06-14T06:05:08;5.35;;;3.08;;
76155;SDS011;64906;51.290;7.348;2023-06-14T06:07:34;5.03;;;3.05;;
76155;SDS011;64906;51.290;7.348;2023-06-14T06:09:59;5.43;;;3.43;;
76155;SDS011;64906;51.290;7.348;2023-06-14T06:12:25;5.53;;;3.45;;
76155;SDS011;64906;51.290;7.348;2023-06-14T06:14:50;5.13;;;3.23;;
76155;SDS011;64906;51.290;7.348;2023-06-14T06:17:15;5.00;;;2.83;;
76155;SDS011;64906;51.290;7.348;2023-06-14T06:19:41;11.07;;;3.58;;
76155;SDS011;64906;51.290;7.348;2023-06-14T06:22:06;5.03;;;3.30;;
76155;SDS011;64906;51.290;7.348;2023-06-14T06:24:31;4.73;;;3.10;;
76155;SDS011;64906;51.290;7.348;2023-06-14T06:26:57;5.65;;;3.67;;
76155;SDS011;64906;51.290;7.348;2023-06-14T06:29:22;5.25;;;3.22;;
76155;SDS011;64906;51.290;7.348;2023-06-14T06:31:48;5.40;;;3.40;;
76155;SDS011;64906;51.290;7.348;2023-06-14T06:34:13;5.10;;;3.28;;
76155;SDS011;64906;51.290;7.348;2023-06-14T06:36:38;5.03;;;3.17;;
76155;SDS011;64906;51.290;7.348;2023-06-14T06:39:03;5.20;;;3.37;;
76155;SDS011;64906;51.290;7.348;2023-06-14T06:44:02;5.22;;;3.28;;
76155;SDS011;64906;51.290;7.348;2023-06-14T06:46:27;4.72;;;3.22;;
76155;SDS011;64906;51.290;7.348;2023-06-14T06:48:53;5.67;;;3.33;;
76155;SDS011;64906;51.290;7.348;2023-06-14T06:51:19;5.60;;;3.45;;
76155;SDS011;64906;51.290;7.348;2023-06-14T06:53:45;5.47;;;3.07;;
76155;SDS011;64906;51.290;7.348;2023-06-14T06:56:17;5.32;;;3.33;;
76155;SDS011;64906;51.290;7.348;2023-06-14T06:58:43;5.85;;;3.63;;
76155;SDS011;64906;51.290;7.348;2023-06-14T07:01:08;5.30;;;3.33;;
76155;SDS011;64906;51.290;7.348;2023-06-14T07:03:34;5.95;;;3.33;;
76155;SDS011;64906;51.290;7.348;2023-06-14T07:06:00;5.55;;;3.35;;
76155;SDS011;64906;51.290;7.348;2023-06-14T07:08:26;5.50;;;3.47;;
76155;SDS011;64906;51.290;7.348;2023-06-14T07:10:52;6.35;;;3.45;;
76155;SDS011;64906;51.290;7.348;2023-06-14T07:13:17;6.07;;;3.42;;
76155;SDS011;64906;51.290;7.348;2023-06-14T07:15:43;5.68;;;3.53;;
76155;SDS011;64906;51.290;7.348;2023-06-14T07:18:08;5.82;;;3.35;;
76155;SDS011;64906;51.290;7.348;2023-06-14T07:20:33;5.35;;;3.05;;
76155;SDS011;64906;51.290;7.348;2023-06-14T07:22:59;5.30;;;3.30;;
76155;SDS011;64906;51.290;7.348;2023-06-14T07:25:25;5.03;;;2.97;;
76155;SDS011;64906;51.290;7.348;2023-06-14T07:27:51;5.18;;;3.03;;
76155;SDS011;64906;51.290;7.348;2023-06-14T07:30:16;6.00;;;3.33;;
76155;SDS011;64906;51.290;7.348;2023-06-14T07:32:42;10.65;;;4.95;;
76155;SDS011;64906;51.290;7.348;2023-06-14T07:35:07;20.17;;;12.85;;
76155;SDS011;64906;51.290;7.348;2023-06-14T07:37:33;20.25;;;13.38;;
76155;SDS011;64906;51.290;7.348;2023-06-14T07:39:58;17.80;;;10.38;;
76155;SDS011;64906;51.290;7.348;2023-06-14T07:42:23;20.98;;;10.40;;
76155;SDS011;64906;51.290;7.348;2023-06-14T07:44:49;20.30;;;8.87;;
76155;SDS011;64906;51.290;7.348;2023-06-14T07:47:15;11.05;;;7.47;;
76155;SDS011;64906;51.290;7.348;2023-06-14T07:49:41;15.30;;;7.30;;
76155;SDS011;64906;51.290;7.348;2023-06-14T07:52:06;15.63;;;7.80;;
76155;SDS011;64906;51.290;7.348;2023-06-14T07:54:32;12.63;;;6.78;;
76155;SDS011;64906;51.290;7.348;2023-06-14T07:56:57;14.95;;;7.10;;
76155;SDS011;64906;51.290;7.348;2023-06-14T07:59:25;30.25;;;14.45;;
76155;SDS011;64906;51.290;7.348;2023-06-14T08:01:51;22.77;;;13.05;;
76155;SDS011;64906;51.290;7.348;2023-06-14T08:04:16;26.42;;;14.20;;
76155;SDS011;64906;51.290;7.348;2023-06-14T08:06:42;18.77;;;10.43;;
76155;SDS011;64906;51.290;7.348;2023-06-14T08:09:10;15.70;;;9.55;;
76155;SDS011;64906;51.290;7.348;2023-06-14T08:11:37;16.50;;;9.88;;
76155;SDS011;64906;51.290;7.348;2023-06-14T08:14:02;14.20;;;8.18;;
76155;SDS011;64906;51.290;7.348;2023-06-14T08:16:28;14.65;;;8.43;;
76155;SDS011;64906;51.290;7.348;2023-06-14T08:18:54;12.20;;;8.20;;
76155;SDS011;64906;51.290;7.348;2023-06-14T08:21:20;13.18;;;7.38;;
76155;SDS011;64906;51.290;7.348;2023-06-14T08:23:45;13.45;;;7.78;;
76155;SDS011;64906;51.290;7.348;2023-06-14T08:26:11;16.00;;;7.30;;
76155;SDS011;64906;51.290;7.348;2023-06-14T08:28:36;10.52;;;6.38;;
76155;SDS011;64906;51.290;7.348;2023-06-14T08:31:02;14.33;;;7.47;;
76155;SDS011;64906;51.290;7.348;2023-06-14T08:33:27;9.52;;;5.68;;
76155;SDS011;64906;51.290;7.348;2023-06-14T08:35:52;10.00;;;6.23;;
76155;SDS011;64906;51.290;7.348;2023-06-14T08:38:18;9.98;;;6.18;;
76155;SDS011;64906;51.290;7.348;2023-06-14T08:40:44;11.53;;;6.50;;
76155;SDS011;64906;51.290;7.348;2023-06-14T08:43:12;10.65;;;5.70;;
76155;SDS011;64906;51.290;7.348;2023-06-14T08:45:38;9.77;;;5.53;;
76155;SDS011;64906;51.290;7.348;2023-06-14T08:48:03;10.27;;;5.13;;
76155;SDS011;64906;51.290;7.348;2023-06-14T08:50:31;8.75;;;5.63;;
76155;SDS011;64906;51.290;7.348;2023-06-14T08:52:58;11.63;;;5.60;;
76155;SDS011;64906;51.290;7.348;2023-06-14T08:55:28;8.55;;;4.70;;
76155;SDS011;64906;51.290;7.348;2023-06-14T08:57:55;16.23;;;5.95;;
76155;SDS011;64906;51.290;7.348;2023-06-14T09:00:22;30.92;;;6.40;;
76155;SDS011;64906;51.290;7.348;2023-06-14T09:02:49;19.40;;;6.40;;
76155;SDS011;64906;51.290;7.348;2023-06-14T09:07:46;15.25;;;5.32;;
76155;SDS011;64906;51.290;7.348;2023-06-14T09:10:14;13.70;;;5.55;;
76155;SDS011;64906;51.290;7.348;2023-06-14T09:12:40;15.88;;;5.28;;
76155;SDS011;64906;51.290;7.348;2023-06-14T09:15:07;9.73;;;5.10;;
76155;SDS011;64906;51.290;7.348;2023-06-14T09:17:34;6.57;;;4.13;;
76155;SDS011;64906;51.290;7.348;2023-06-14T09:20:03;10.68;;;5.05;;
76155;SDS011;64906;51.290;7.348;2023-06-14T09:22:38;8.93;;;4.22;;
76155;SDS011;64906;51.290;7.348;2023-06-14T09:25:04;9.32;;;4.40;;
76155;SDS011;64906;51.290;7.348;2023-06-14T09:27:31;8.02;;;4.22;;
76155;SDS011;64906;51.290;7.348;2023-06-14T09:29:57;8.20;;;4.43;;
76155;SDS011;64906;51.290;7.348;2023-06-14T09:32:22;8.75;;;4.47;;
76155;SDS011;64906;51.290;7.348;2023-06-14T09:34:48;8.65;;;3.90;;
76155;SDS011;64906;51.290;7.348;2023-06-14T09:37:29;6.75;;;4.18;;
76155;SDS011;64906;51.290;7.348;2023-06-14T09:39:56;9.48;;;4.53;;
76155;SDS011;64906;51.290;7.348;2023-06-14T09:42:22;9.27;;;4.18;;
76155;SDS011;64906;51.290;7.348;2023-06-14T09:44:51;6.65;;;3.90;;
76155;SDS011;64906;51.290;7.348;2023-06-14T09:47:17;7.18;;;4.13;;
76155;SDS011;64906;51.290;7.348;2023-06-14T09:49:43;7.25;;;3.85;;
76155;SDS011;64906;51.290;7.348;2023-06-14T09:52:10;7.25;;;3.90;;
76155;SDS011;64906;51.290;7.348;2023-06-14T09:54:40;6.88;;;3.72;;
76155;SDS011;64906;51.290;7.348;2023-06-14T09:57:08;8.63;;;3.95;;
76155;SDS011;64906;51.290;7.348;2023-06-14T10:02:10;7.50;;;3.88;;
76155;SDS011;64906;51.290;7.348;2023-06-14T10:04:46;9.55;;;3.72;;
76155;SDS011;64906;51.290;7.348;2023-06-14T10:07:17;9.50;;;3.72;;
76155;SDS011;64906;51.290;7.348;2023-06-14T10:09:45;6.20;;;3.60;;
76155;SDS011;64906;51.290;7.348;2023-06-14T10:12:16;6.88;;;3.95;;
76155;SDS011;64906;51.290;7.348;2023-06-14T10:14:46;8.02;;;3.90;;
76155;SDS011;64906;51.290;7.348;2023-06-14T10:17:17;9.10;;;4.03;;
76155;SDS011;64906;51.290;7.348;2023-06-14T10:19:58;17.48;;;4.85;;
76155;SDS011;64906;51.290;7.348;2023-06-14T10:22:37;10.05;;;3.65;;
76155;SDS011;64906;51.290;7.348;2023-06-14T10:25:10;9.55;;;3.15;;
76155;SDS011;64906;51.290;7.348;2023-06-14T10:27:38;7.57;;;3.67;;
76155;SDS011;64906;51.290;7.348;2023-06-14T10:30:04;8.05;;;3.47;;
76155;SDS011;64906;51.290;7.348;2023-06-14T10:32:47;16.67;;;4.03;;
76155;SDS011;64906;51.290;7.348;2023-06-14T10:35:35;10.80;;;3.45;;
76155;SDS011;64906;51.290;7.348;2023-06-14T10:38:11;16.02;;;3.83;;
76155;SDS011;64906;51.290;7.348;2023-06-14T10:40:37;21.35;;;3.72;;
76155;SDS011;64906;51.290;7.348;2023-06-14T10:43:22;22.77;;;4.47;;
76155;SDS011;64906;51.290;7.348;2023-06-14T10:48:41;15.80;;;4.22;;
76155;SDS011;64906;51.290;7.348;2023-06-14T10:51:16;14.18;;;3.83;;
76155;SDS011;64906;51.290;7.348;2023-06-14T10:53:46;24.60;;;4.10;;
76155;SDS011;64906;51.290;7.348;2023-06-14T10:56:23;20.80;;;3.80;;
76155;SDS011;64906;51.290;7.348;2023-06-14T10:58:51;16.42;;;3.67;;
76155;SDS011;64906;51.290;7.348;2023-06-14T11:01:18;26.58;;;4.60;;
76155;SDS011;64906;51.290;7.348;2023-06-14T11:03:54;20.95;;;4.00;;
76155;SDS011;64906;51.290;7.348;2023-06-14T11:06:21;20.52;;;4.03;;
76155;SDS011;64906;51.290;7.348;2023-06-14T11:11:37;12.88;;;4.05;;
76155;SDS011;64906;51.290;7.348;2023-06-14T11:14:03;9.85;;;3.42;;
76155;SDS011;64906;51.290;7.348;2023-06-14T11:16:29;12.35;;;3.35;;
76155;SDS011;64906;51.290;7.348;2023-06-14T11:18:57;14.05;;;3.20;;
76155;SDS011;64906;51.290;7.348;2023-06-14T11:21:23;13.05;;;3.05;;
76155;SDS011;64906;51.290;7.348;2023-06-14T11:23:50;15.85;;;3.72;;
76155;SDS011;64906;51.290;7.348;2023-06-14T11:26:23;15.63;;;3.35;;
76155;SDS011;64906;51.290;7.348;2023-06-14T11:28:54;12.63;;;3.30;;
76155;SDS011;64906;51.290;7.348;2023-06-14T11:31:21;12.30;;;3.10;;
76155;SDS011;64906;51.290;7.348;2023-06-14T11:33:49;10.48;;;3.55;;
76155;SDS011;64906;51.290;7.348;2023-06-14T11:36:15;9.52;;;3.30;;
76155;SDS011;64906;51.290;7.348;2023-06-14T11:38:40;7.60;;;3.23;;
76155;SDS011;64906;51.290;7.348;2023-06-14T11:41:06;16.80;;;3.30;;
76155;SDS011;64906;51.290;7.348;2023-06-14T11:43:31;11.38;;;3.45;;
76155;SDS011;64906;51.290;7.348;2023-06-14T11:45:58;7.32;;;2.90;;
76155;SDS011;64906;51.290;7.348;2023-06-14T11:48:35;9.00;;;3.22;;
76155;SDS011;64906;51.290;7.348;2023-06-14T11:51:04;28.63;;;19.00;;
76155;SDS011;64906;51.290;7.348;2023-06-14T11:53:30;25.27;;;13.75;;
76155;SDS011;64906;51.290;7.348;2023-06-14T11:55:55;23.42;;;12.13;;
76155;SDS011;64906;51.290;7.348;2023-06-14T11:58:22;15.23;;;9.38;;
76155;SDS011;64906;51.290;7.348;2023-06-14T12:00:50;16.10;;;8.15;;
76155;SDS011;64906;51.290;7.348;2023-06-14T12:03:16;11.68;;;7.43;;
76155;SDS011;64906;51.290;7.348;2023-06-14T12:05:42;12.45;;;8.15;;
76155;SDS011;64906;51.290;7.348;2023-06-14T12:08:08;14.93;;;8.55;;
76155;SDS011;64906;51.290;7.348;2023-06-14T12:10:40;14.43;;;8.07;;
76155;SDS011;64906;51.290;7.348;2023-06-14T12:13:09;11.20;;;6.93;;
76155;SDS011;64906;51.290;7.348;2023-06-14T12:15:36;12.38;;;7.07;;
76155;SDS011;64906;51.290;7.348;2023-06-14T12:18:04;11.35;;;6.97;;
76155;SDS011;64906;51.290;7.348;2023-06-14T12:20:32;14.20;;;7.75;;
76155;SDS011;64906;51.290;7.348;2023-06-14T12:23:02;14.07;;;7.93;;
76155;SDS011;64906;51.290;7.348;2023-06-14T12:25:31;11.48;;;6.70;;
76155;SDS011;64906;51.290;7.348;2023-06-14T12:27:59;12.32;;;6.65;;
76155;SDS011;64906;51.290;7.348;2023-06-14T12:30:30;12.95;;;6.45;;
76155;SDS011;64906;51.290;7.348;2023-06-14T12:32:55;10.90;;;6.03;;
76155;SDS011;64906;51.290;7.348;2023-06-14T12:35:21;9.38;;;5.75;;
76155;SDS011;64906;51.290;7.348;2023-06-14T12:37:46;11.65;;;5.28;;
76155;SDS011;64906;51.290;7.348;2023-06-14T12:40:12;8.40;;;5.60;;
76155;SDS011;64906;51.290;7.348;2023-06-14T12:42:38;10.38;;;5.05;;
76155;SDS011;64906;51.290;7.348;2023-06-14T12:45:04;10.35;;;4.90;;
76155;SDS011;64906;51.290;7.348;2023-06-14T12:47:29;8.30;;;4.93;;
76155;SDS011;64906;51.290;7.348;2023-06-14T12:49:55;10.88;;;5.28;;
76155;SDS011;64906;51.290;7.348;2023-06-14T12:52:20;28.08;;;12.73;;
76155;SDS011;64906;51.290;7.348;2023-06-14T12:54:45;18.23;;;10.10;;
76155;SDS011;64906;51.290;7.348;2023-06-14T12:57:11;32.67;;;14.87;;
76155;SDS011;64906;51.290;7.348;2023-06-14T12:59:36;33.03;;;14.98;;
76155;SDS011;64906;51.290;7.348;2023-06-14T13:02:15;32.33;;;16.00;;
76155;SDS011;64906;51.290;7.348;2023-06-14T13:04:42;37.97;;;15.52;;
76155;SDS011;64906;51.290;7.348;2023-06-14T13:07:08;30.85;;;14.18;;
76155;SDS011;64906;51.290;7.348;2023-06-14T13:09:33;31.85;;;15.32;;
76155;SDS011;64906;51.290;7.348;2023-06-14T13:11:59;31.67;;;14.15;;
76155;SDS011;64906;51.290;7.348;2023-06-14T13:14:25;24.70;;;12.88;;
76155;SDS011;64906;51.290;7.348;2023-06-14T13:16:51;30.33;;;14.40;;
76155;SDS011;64906;51.290;7.348;2023-06-14T13:19:16;24.00;;;13.25;;
76155;SDS011;64906;51.290;7.348;2023-06-14T13:21:41;23.80;;;12.40;;
76155;SDS011;64906;51.290;7.348;2023-06-14T13:24:07;26.10;;;13.57;;
76155;SDS011;64906;51.290;7.348;2023-06-14T13:26:33;23.90;;;12.93;;
76155;SDS011;64906;51.290;7.348;2023-06-14T13:28:59;30.52;;;13.05;;
76155;SDS011;64906;51.290;7.348;2023-06-14T13:31:24;23.75;;;11.85;;
76155;SDS011;64906;51.290;7.348;2023-06-14T13:33:50;26.33;;;13.07;;
76155;SDS011;64906;51.290;7.348;2023-06-14T13:36:15;25.63;;;12.70;;
76155;SDS011;64906;51.290;7.348;2023-06-14T13:38:41;28.48;;;13.35;;
76155;SDS011;64906;51.290;7.348;2023-06-14T13:41:06;27.77;;;12.83;;
76155;SDS011;64906;51.290;7.348;2023-06-14T13:43:31;31.60;;;13.77;;
76155;SDS011;64906;51.290;7.348;2023-06-14T13:45:57;24.77;;;11.87;;
76155;SDS011;64906;51.290;7.348;2023-06-14T13:48:22;26.85;;;12.60;;
76155;SDS011;64906;51.290;7.348;2023-06-14T13:50:47;24.73;;;12.40;;
76155;SDS011;64906;51.290;7.348;2023-06-14T13:53:13;26.42;;;12.27;;
76155;SDS011;64906;51.290;7.348;2023-06-14T13:55:39;19.25;;;11.00;;
76155;SDS011;64906;51.290;7.348;2023-06-14T13:58:04;23.88;;;11.85;;
76155;SDS011;64906;51.290;7.348;2023-06-14T14:00:30;25.23;;;11.30;;
76155;SDS011;64906;51.290;7.348;2023-06-14T14:02:55;19.85;;;11.07;;
76155;SDS011;64906;51.290;7.348;2023-06-14T14:05:22;21.73;;;11.38;;
76155;SDS011;64906;51.290;7.348;2023-06-14T14:07:53;20.80;;;10.02;;
76155;SDS011;64906;51.290;7.348;2023-06-14T14:10:19;23.90;;;12.20;;
76155;SDS011;64906;51.290;7.348;2023-06-14T14:12:45;19.52;;;10.65;;
76155;SDS011;64906;51.290;7.348;2023-06-14T14:15:11;19.73;;;10.20;;
76155;SDS011;64906;51.290;7.348;2023-06-14T14:17:38;22.73;;;11.07;;
76155;SDS011;64906;51.290;7.348;2023-06-14T14:20:03;19.63;;;10.45;;
76155;SDS011;64906;51.290;7.348;2023-06-14T14:22:29;20.83;;;9.88;;
76155;SDS011;64906;51.290;7.348;2023-06-14T14:24:55;19.52;;;10.13;;
76155;SDS011;64906;51.290;7.348;2023-06-14T14:27:20;18.20;;;10.37;;
76155;SDS011;64906;51.290;7.348;2023-06-14T14:29:46;19.85;;;10.57;;
76155;SDS011;64906;51.290;7.348;2023-06-14T14:32:11;17.70;;;8.90;;
76155;SDS011;64906;51.290;7.348;2023-06-14T14:34:39;16.80;;;8.82;;
76155;SDS011;64906;51.290;7.348;2023-06-14T14:37:04;13.57;;;8.13;;
76155;SDS011;64906;51.290;7.348;2023-06-14T14:39:30;16.52;;;9.35;;
76155;SDS011;64906;51.290;7.348;2023-06-14T14:41:55;18.13;;;10.45;;
76155;SDS011;64906;51.290;7.348;2023-06-14T14:44:21;23.35;;;12.98;;
76155;SDS011;64906;51.290;7.348;2023-06-14T14:46:46;24.92;;;12.70;;
76155;SDS011;64906;51.290;7.348;2023-06-14T14:49:11;20.92;;;11.32;;
76155;SDS011;64906;51.290;7.348;2023-06-14T14:51:37;23.13;;;13.18;;
76155;SDS011;64906;51.290;7.348;2023-06-14T14:54:03;19.58;;;12.43;;